Time;durP1;ratioP1;P1;durP2;ratioP2;P2;SDS_P1;SDS_P2;PMS_P1;PMS_P2;Temp;Humidity;BMP_temperature;BMP_pressure;BME280_temperature;BME280_humidity;BME280_pressure;Samples;Min_cycle;Max_cycle;Signal;HPM_P1;HPM_P2
2021/06/09 00:01:54;;;;;;;13.07;10.93;;;17.10;99.90;;;;;;6767486;87;20688;-76
2021/06/09 00:11:55;;;;;;;14.93;11.77;;;17.00;99.90;;;;;;6768963;87;20187;-76
2021/06/09 00:21:56;;;;;;;14.40;11.27;;;16.70;99.90;;;;;;6768561;87;20275;-76
2021/06/09 00:31:56;;;;;;;13.93;11.23;;;16.70;99.90;;;;;;6772182;87;20191;-76
2021/06/09 00:41:57;;;;;;;15.88;11.82;;;16.60;99.90;;;;;;6767111;87;20779;-76
2021/06/09 00:51:57;;;;;;;19.73;13.70;;;16.50;99.90;;;;;;6747305;87;20207;-76
2021/06/09 01:01:58;;;;;;;17.55;14.40;;;16.30;99.90;;;;;;6745725;88;20196;-76
2021/06/09 01:11:59;;;;;;;19.10;14.40;;;16.10;99.90;;;;;;6746596;87;20172;-76
2021/06/09 01:21:59;;;;;;;20.25;16.52;;;16.20;99.90;;;;;;6746809;87;20180;-76
2021/06/09 01:32:00;;;;;;;19.75;16.55;;;16.10;99.90;;;;;;6749917;87;20701;-76
2021/06/09 01:42:00;;;;;;;25.48;18.75;;;16.00;99.90;;;;;;6751832;87;20609;-76
2021/06/09 01:52:01;;;;;;;27.85;20.90;;;15.80;99.90;;;;;;6767844;87;20219;-76
2021/06/09 02:02:02;;;;;;;26.92;20.27;;;15.60;99.90;;;;;;6771521;87;20199;-76
2021/06/09 02:12:04;;;;;;;25.10;19.40;;;15.50;99.90;;;;;;6771094;87;20239;-76
2021/06/09 02:22:05;;;;;;;28.30;20.70;;;15.40;99.90;;;;;;6774543;87;20362;-76
2021/06/09 02:32:06;;;;;;;27.80;21.42;;;15.20;99.90;;;;;;6769619;87;20202;-76
2021/06/09 02:42:06;;;;;;;30.33;23.05;;;15.20;99.90;;;;;;6767713;87;20568;-76
2021/06/09 02:52:16;;;;;;;30.80;21.80;;;15.10;99.90;;;;;;6748733;88;20192;-76
2021/06/09 03:02:21;;;;;;;32.25;22.90;;;15.00;99.90;;;;;;6747274;88;20212;-76
2021/06/09 03:12:36;;;;;;;30.33;23.20;;;14.90;99.90;;;;;;6748903;87;20204;-76
2021/06/09 03:22:58;;;;;;;30.62;22.30;;;14.80;99.90;;;;;;6750089;88;20206;-76
2021/06/09 03:33:03;;;;;;;28.30;21.98;;;14.70;99.90;;;;;;6748349;87;20228;-76
2021/06/09 03:43:05;;;;;;;29.90;20.92;;;14.70;99.90;;;;;;6757596;87;20192;-77
2021/06/09 03:53:06;;;;;;;27.95;21.70;;;14.80;99.90;;;;;;6769817;87;20741;-76
2021/06/09 04:03:08;;;;;;;33.00;23.00;;;14.70;99.90;;;;;;6771017;87;20379;-76
2021/06/09 04:13:09;;;;;;;33.65;24.52;;;14.50;99.90;;;;;;6767568;87;20195;-76
2021/06/09 04:23:11;;;;;;;33.85;24.80;;;14.60;99.90;;;;;;6768841;87;20634;-76
2021/06/09 04:33:12;;;;;;;33.90;24.15;;;14.50;99.90;;;;;;6770077;87;20199;-76
2021/06/09 04:43:13;;;;;;;30.30;22.83;;;14.80;99.90;;;;;;6764233;77;20316;-76
2021/06/09 04:53:15;;;;;;;33.17;22.87;;;15.10;99.90;;;;;;6735427;88;20238;-78
2021/06/09 05:03:16;;;;;;;30.58;22.50;;;15.30;99.90;;;;;;6737462;88;20204;-76
2021/06/09 05:13:29;;;;;;;30.23;22.05;;;15.40;99.90;;;;;;6746410;88;20205;-77
2021/06/09 05:23:35;;;;;;;26.33;20.80;;;15.50;99.90;;;;;;6748839;88;20563;-77
2021/06/09 05:33:36;;;;;;;30.85;21.77;;;15.70;99.90;;;;;;6740712;88;20238;-76
2021/06/09 05:43:40;;;;;;;31.27;23.52;;;16.00;99.90;;;;;;6744675;88;20392;-73
2021/06/09 05:53:41;;;;;;;30.30;22.67;;;16.40;99.90;;;;;;6749238;88;20620;-77
2021/06/09 06:03:44;;;;;;;33.17;25.12;;;17.00;99.90;;;;;;6751916;88;20299;-77
2021/06/09 06:13:49;;;;;;;33.92;25.75;;;17.90;99.90;;;;;;6743644;88;20658;-77
2021/06/09 06:23:51;;;;;;;30.83;24.47;;;18.90;99.90;;;;;;6746628;88;20177;-79
2021/06/09 06:33:58;;;;;;;30.67;24.08;;;20.00;99.90;;;;;;6737094;88;20518;-79
2021/06/09 06:43:59;;;;;;;30.65;22.60;;;20.70;99.90;;;;;;6743629;88;20196;-77
2021/06/09 06:54:00;;;;;;;27.23;20.70;;;21.20;99.90;;;;;;6745431;88;20173;-78
2021/06/09 07:04:03;;;;;;;27.25;21.15;;;22.10;99.90;;;;;;6733747;88;20655;-77
2021/06/09 07:14:05;;;;;;;26.37;19.95;;;22.80;99.90;;;;;;6746773;88;20690;-78
2021/06/09 07:24:06;;;;;;;26.15;20.40;;;23.50;99.90;;;;;;6738661;88;20350;-80
2021/06/09 07:34:08;;;;;;;22.02;18.52;;;24.30;99.90;;;;;;6745312;88;20347;-79
2021/06/09 07:44:10;;;;;;;23.98;18.73;;;24.70;99.90;;;;;;6742845;88;20197;-81
2021/06/09 07:54:12;;;;;;;23.08;18.23;;;25.20;99.90;;;;;;6744576;88;20298;-79
2021/06/09 08:04:14;;;;;;;23.60;18.35;;;25.60;99.90;;;;;;6737845;88;20189;-79
2021/06/09 08:14:15;;;;;;;23.53;18.93;;;26.20;99.90;;;;;;6749911;88;20354;-78
2021/06/09 08:24:16;;;;;;;24.55;17.52;;;26.90;99.00;;;;;;6758207;88;20231;-78
2021/06/09 08:34:17;;;;;;;26.17;17.75;;;27.30;98.50;;;;;;6751939;88;20195;-78
2021/06/09 08:44:17;;;;;;;20.15;15.95;;;27.80;96.80;;;;;;6750901;88;20226;-79
2021/06/09 08:54:18;;;;;;;16.92;14.52;;;28.10;96.70;;;;;;6751289;88;20221;-79
2021/06/09 09:04:19;;;;;;;21.75;15.27;;;28.70;95.50;;;;;;6714769;88;20223;-79
2021/06/09 09:14:20;;;;;;;19.75;14.98;;;28.70;95.20;;;;;;6713811;88;20215;-78
2021/06/09 09:24:43;;;;;;;20.02;15.07;;;29.00;94.00;;;;;;6715034;88;20218;-78
2021/06/09 09:34:46;;;;;;;19.83;15.13;;;29.50;92.00;;;;;;6715611;88;20193;-78
2021/06/09 09:44:49;;;;;;;20.37;17.23;;;29.80;91.90;;;;;;6715378;88;20192;-75
2021/06/09 09:54:58;;;;;;;16.48;14.15;;;30.30;89.10;;;;;;6716526;88;20286;-76
2021/06/09 10:05:13;;;;;;;21.20;16.05;;;31.40;85.90;;;;;;6719013;88;20689;-76
2021/06/09 10:15:32;;;;;;;17.30;13.15;;;31.90;79.70;;;;;;6718148;88;20265;-76
2021/06/09 10:25:33;;;;;;;16.67;13.10;;;32.60;77.50;;;;;;6718796;88;20200;-76
2021/06/09 10:35:38;;;;;;;14.13;11.10;;;30.20;81.10;;;;;;6728533;88;20199;-77
2021/06/09 10:45:41;;;;;;;12.15;9.50;;;31.90;77.20;;;;;;6745383;88;20216;-74
2021/06/09 10:55:42;;;;;;;14.52;11.35;;;33.70;71.70;;;;;;6766867;88;20210;-76
2021/06/09 11:05:43;;;;;;;12.30;11.00;;;32.00;73.10;;;;;;6765359;88;20997;-77
2021/06/09 11:15:43;;;;;;;9.93;8.40;;;31.00;73.40;;;;;;6755236;88;20296;-76
2021/06/09 11:25:47;;;;;;;14.20;11.30;;;31.70;74.70;;;;;;6741558;88;20212;-77
2021/06/09 11:35:49;;;;;;;12.45;10.60;;;31.40;71.80;;;;;;6736592;88;20265;-76
2021/06/09 11:45:55;;;;;;;12.43;10.40;;;31.40;72.40;;;;;;6735994;88;20918;-76
2021/06/09 11:56:24;;;;;;;14.90;9.98;;;31.70;69.40;;;;;;6736196;88;20188;-76
2021/06/09 12:06:25;;;;;;;14.52;11.38;;;30.50;72.20;;;;;;6716015;88;20177;-78
2021/06/09 12:16:26;;;;;;;13.10;10.75;;;29.70;74.30;;;;;;6718449;88;20260;-76
2021/06/09 12:26:27;;;;;;;11.12;8.88;;;30.40;74.40;;;;;;6717783;88;20217;-78
2021/06/09 12:36:28;;;;;;;16.50;8.73;;;31.20;68.40;;;;;;6717663;88;20578;-77
2021/06/09 12:46:28;;;;;;;12.60;9.93;;;30.80;70.60;;;;;;6717552;88;20660;-76
2021/06/09 12:56:30;;;;;;;11.73;9.98;;;31.70;68.90;;;;;;6717989;88;20759;-77
2021/06/09 13:06:30;;;;;;;11.73;9.57;;;30.70;70.00;;;;;;6718106;88;20281;-76
2021/06/09 13:16:36;;;;;;;11.43;9.20;;;30.90;68.50;;;;;;6717583;88;20284;-76
2021/06/09 13:26:37;;;;;;;9.93;8.93;;;31.90;68.00;;;;;;6716820;88;20205;-77
2021/06/09 13:36:38;;;;;;;12.32;9.25;;;32.90;64.30;;;;;;6719506;88;20312;-76
2021/06/09 13:46:52;;;;;;;9.82;8.82;;;33.60;63.00;;;;;;6720240;88;20222;-77
2021/06/09 13:56:52;;;;;;;9.95;8.93;;;33.30;62.90;;;;;;6719156;88;20185;-76
2021/06/09 14:07:00;;;;;;;;;;;32.70;63.80;;;;;;6719539;88;20303;-77
2021/06/09 14:17:27;;;;;;;14.20;9.73;;;31.20;66.20;;;;;;6719283;88;20045;-76
2021/06/09 14:27:27;;;;;;;13.73;10.48;;;31.90;65.00;;;;;;6712087;88;20193;-77
2021/06/09 14:37:38;;;;;;;11.40;8.50;;;32.20;63.20;;;;;;6715388;88;20711;-79
2021/06/09 14:57:40;;;;;;;12.73;9.45;;;31.60;64.20;;;;;;6729018;88;20401;-76
2021/06/09 15:07:40;;;;;;;;;;;32.10;63.90;;;;;;6730079;88;20712;-75
2021/06/09 15:17:41;;;;;;;10.40;7.90;;;32.00;65.20;;;;;;6732629;88;20062;-76
2021/06/09 15:27:42;;;;;;;8.93;7.85;;;32.50;63.40;;;;;;6732557;88;20210;-76
2021/06/09 15:37:42;;;;;;;15.73;10.20;;;32.20;61.10;;;;;;6736682;88;21040;-78
2021/06/09 15:47:43;;;;;;;11.23;10.10;;;31.50;62.70;;;;;;6725922;88;20765;-77
2021/06/09 15:57:44;;;;;;;10.93;9.30;;;31.50;62.40;;;;;;6729994;88;20231;-73
2021/06/09 16:07:45;;;;;;;9.07;7.83;;;31.30;61.00;;;;;;6732042;88;20320;-76
2021/06/09 16:17:45;;;;;;;11.10;9.13;;;30.80;61.20;;;;;;6731677;88;20595;-77
2021/06/09 16:27:47;;;;;;;11.85;8.30;;;30.20;63.40;;;;;;6727641;88;20201;-76
2021/06/09 16:37:47;;;;;;;11.48;9.10;;;29.70;65.10;;;;;;6742649;88;20296;-77
2021/06/09 16:47:49;;;;;;;11.52;8.88;;;29.50;64.20;;;;;;6736544;88;20205;-77
2021/06/09 17:08:17;;;;;;;9.05;8.20;;;28.90;68.00;;;;;;6739627;88;20200;-76
2021/06/09 17:18:18;;;;;;;11.68;9.80;;;29.30;66.70;;;;;;6739358;88;20230;-78
2021/06/09 17:28:19;;;;;;;11.30;8.80;;;29.70;66.80;;;;;;6738464;88;20177;-77
2021/06/09 17:38:21;;;;;;;9.48;8.32;;;30.00;67.00;;;;;;6732949;88;20184;-77
2021/06/09 17:48:22;;;;;;;10.37;7.80;;;30.10;65.20;;;;;;6738724;88;20209;-80
2021/06/09 17:58:25;;;;;;;9.98;8.32;;;29.10;64.10;;;;;;6753916;88;20233;-78
2021/06/09 18:08:26;;;;;;;8.98;7.68;;;28.70;65.20;;;;;;6740387;88;20282;-79
2021/06/09 18:18:27;;;;;;;9.80;8.27;;;28.40;65.60;;;;;;6748713;88;20208;-79
2021/06/09 18:28:27;;;;;;;13.50;10.10;;;27.90;67.20;;;;;;6734011;88;21027;-79
2021/06/09 18:38:32;;;;;;;14.82;10.52;;;27.30;70.40;;;;;;6736384;88;20231;-79
2021/06/09 18:48:33;;;;;;;13.00;10.10;;;27.00;72.60;;;;;;6740362;88;20184;-78
2021/06/09 18:58:35;;;;;;;12.60;9.80;;;26.30;75.60;;;;;;6741104;88;20188;-79
2021/06/09 19:08:36;;;;;;;13.88;8.57;;;26.00;77.00;;;;;;6736895;88;20377;-78
2021/06/09 19:18:37;;;;;;;10.85;9.70;;;25.70;78.60;;;;;;6734973;88;20238;-78
2021/06/09 19:28:37;;;;;;;13.77;10.82;;;25.30;80.80;;;;;;6733819;88;20209;-79
2021/06/09 19:38:40;;;;;;;11.63;10.07;;;25.00;86.40;;;;;;6738586;88;20701;-79
2021/06/09 19:48:40;;;;;;;15.45;10.50;;;24.50;91.70;;;;;;6734947;88;20524;-80
2021/06/09 19:58:43;;;;;;;13.98;9.85;;;24.20;95.80;;;;;;6734076;88;20181;-78
2021/06/09 20:08:44;;;;;;;11.73;10.43;;;23.90;99.60;;;;;;6748117;88;20697;-79
2021/06/09 20:18:44;;;;;;;11.32;9.80;;;23.50;99.90;;;;;;6748937;88;20173;-80
2021/06/09 20:28:45;;;;;;;11.77;10.40;;;23.20;99.90;;;;;;6741419;88;20209;-78
2021/06/09 20:38:48;;;;;;;13.02;10.45;;;23.00;99.90;;;;;;6742307;88;20178;-77
2021/06/09 20:48:48;;;;;;;13.43;11.27;;;22.70;99.90;;;;;;6745167;88;20186;-77
2021/06/09 20:58:49;;;;;;;19.52;13.75;;;22.50;99.90;;;;;;6746009;88;20604;-78
2021/06/09 21:08:50;;;;;;;19.98;15.13;;;22.40;99.90;;;;;;6737358;88;20207;-77
2021/06/09 21:18:50;;;;;;;18.75;13.57;;;22.40;99.90;;;;;;6738356;88;20262;-78
2021/06/09 21:28:51;;;;;;;17.67;13.82;;;22.10;99.90;;;;;;6739258;88;20197;-78
2021/06/09 21:38:51;;;;;;;20.42;14.25;;;21.90;99.90;;;;;;6735057;88;20219;-76
2021/06/09 21:48:52;;;;;;;17.58;14.07;;;21.60;99.90;;;;;;6747654;88;20197;-77
2021/06/09 21:58:52;;;;;;;17.92;14.00;;;21.40;99.90;;;;;;6748891;88;20207;-78
2021/06/09 22:08:53;;;;;;;17.48;13.90;;;21.20;99.90;;;;;;6761040;88;20688;-77
2021/06/09 22:18:54;;;;;;;16.62;13.95;;;21.10;99.90;;;;;;6746448;88;20213;-79
2021/06/09 22:28:55;;;;;;;19.17;13.80;;;21.00;99.90;;;;;;6741384;88;20183;-78
2021/06/09 22:38:56;;;;;;;18.00;13.90;;;20.80;99.90;;;;;;6740467;88;20510;-78
2021/06/09 22:59:00;;;;;;;16.37;12.98;;;20.60;99.90;;;;;;6767719;88;20221;-79
2021/06/09 23:09:02;;;;;;;15.70;11.90;;;20.50;99.90;;;;;;6749024;88;20643;-79
2021/06/09 23:19:03;;;;;;;14.90;10.32;;;20.30;99.90;;;;;;6748243;88;20617;-79
2021/06/09 23:29:03;;;;;;;12.18;9.10;;;20.30;99.90;;;;;;6749311;88;20243;-79
2021/06/09 23:39:04;;;;;;;11.77;8.33;;;20.10;99.90;;;;;;6747651;88;20272;-79
2021/06/09 23:49:07;;;;;;;13.13;9.02;;;20.00;99.90;;;;;;6752615;88;20223;-78
2021/06/09 23:59:08;;;;;;;13.62;9.40;;;19.90;99.90;;;;;;6758978;88;20206;-79
